sensor_id;sensor_type;location;lat;lon;timestamp;pressure;altitude;pressure_sealevel;temperature;humidity
72414;BME280;60995;52.154;4.498;2022-10-31T00:00:26;101982.88;;;12.94;83.44
72414;BME280;60995;52.154;4.498;2022-10-31T00:02:42;101974.97;;;12.80;84.01
72414;BME280;60995;52.154;4.498;2022-10-31T00:04:58;101983.50;;;12.98;83.31
72414;BME280;60995;52.154;4.498;2022-10-31T00:07:14;101987.59;;;12.92;83.92
72414;BME280;60995;52.154;4.498;2022-10-31T00:09:30;101981.41;;;12.90;83.54
72414;BME280;60995;52.154;4.498;2022-10-31T00:11:46;101986.59;;;13.04;83.18
72414;BME280;60995;52.154;4.498;2022-10-31T00:14:02;101986.84;;;12.90;83.37
72414;BME280;60995;52.154;4.498;2022-10-31T00:16:19;101981.41;;;12.90;83.84
72414;BME280;60995;52.154;4.498;2022-10-31T00:18:37;101995.28;;;12.87;84.17
72414;BME280;60995;52.154;4.498;2022-10-31T00:21:00;101996.63;;;12.93;83.68
72414;BME280;60995;52.154;4.498;2022-10-31T00:23:17;102000.97;;;12.95;83.73
72414;BME280;60995;52.154;4.498;2022-10-31T00:25:34;101999.22;;;12.94;83.38
72414;BME280;60995;52.154;4.498;2022-10-31T00:27:52;102002.34;;;12.89;84.13
72414;BME280;60995;52.154;4.498;2022-10-31T00:30:08;102001.94;;;12.94;84.51
72414;BME280;60995;52.154;4.498;2022-10-31T00:32:24;101991.53;;;12.99;83.50
72414;BME280;60995;52.154;4.498;2022-10-31T00:34:40;102000.34;;;12.91;83.48
72414;BME280;60995;52.154;4.498;2022-10-31T00:36:56;102005.41;;;12.85;83.52
72414;BME280;60995;52.154;4.498;2022-10-31T00:39:12;101993.06;;;12.92;83.82
72414;BME280;60995;52.154;4.498;2022-10-31T00:41:28;102005.66;;;12.93;83.51
72414;BME280;60995;52.154;4.498;2022-10-31T00:43:45;102000.97;;;12.84;83.76
72414;BME280;60995;52.154;4.498;2022-10-31T00:46:01;102005.16;;;12.88;83.60
72414;BME280;60995;52.154;4.498;2022-10-31T00:48:18;101996.00;;;12.89;83.57
72414;BME280;60995;52.154;4.498;2022-10-31T00:50:34;102003.41;;;12.98;83.13
72414;BME280;60995;52.154;4.498;2022-10-31T00:52:50;101995.50;;;12.95;83.32
72414;BME280;60995;52.154;4.498;2022-10-31T00:55:06;101999.47;;;12.91;83.46
72414;BME280;60995;52.154;4.498;2022-10-31T00:57:22;102000.22;;;12.82;84.53
72414;BME280;60995;52.154;4.498;2022-10-31T00:59:38;102001.22;;;12.92;84.04
72414;BME280;60995;52.154;4.498;2022-10-31T01:01:54;101998.75;;;12.78;84.21
72414;BME280;60995;52.154;4.498;2022-10-31T01:04:10;101995.13;;;12.66;84.86
72414;BME280;60995;52.154;4.498;2022-10-31T01:06:26;102003.69;;;12.61;85.09
72414;BME280;60995;52.154;4.498;2022-10-31T01:08:42;101997.25;;;12.62;85.22
72414;BME280;60995;52.154;4.498;2022-10-31T01:11:03;101995.88;;;12.56;85.38
72414;BME280;60995;52.154;4.498;2022-10-31T01:13:20;101995.50;;;12.50;85.26
72414;BME280;60995;52.154;4.498;2022-10-31T01:15:36;101984.13;;;12.56;85.65
72414;BME280;60995;52.154;4.498;2022-10-31T01:17:52;101983.63;;;12.62;85.43
72414;BME280;60995;52.154;4.498;2022-10-31T01:20:08;101984.88;;;12.69;84.87
72414;BME280;60995;52.154;4.498;2022-10-31T01:22:26;101992.28;;;12.56;85.42
72414;BME280;60995;52.154;4.498;2022-10-31T01:24:44;101990.81;;;12.52;85.97
72414;BME280;60995;52.154;4.498;2022-10-31T01:27:01;101991.53;;;12.54;85.70
72414;BME280;60995;52.154;4.498;2022-10-31T01:29:17;101983.38;;;12.65;85.16
72414;BME280;60995;52.154;4.498;2022-10-31T01:31:34;101980.91;;;12.73;84.70
72414;BME280;60995;52.154;4.498;2022-10-31T01:33:52;101979.41;;;12.69;85.05
72414;BME280;60995;52.154;4.498;2022-10-31T01:36:13;101976.81;;;12.56;85.79
72414;BME280;60995;52.154;4.498;2022-10-31T01:38:31;101974.97;;;12.57;85.69
72414;BME280;60995;52.154;4.498;2022-10-31T01:40:47;101972.75;;;12.62;85.95
72414;BME280;60995;52.154;4.498;2022-10-31T01:43:03;101969.28;;;12.60;85.67
72414;BME280;60995;52.154;4.498;2022-10-31T01:45:19;101971.75;;;12.52;85.72
72414;BME280;60995;52.154;4.498;2022-10-31T01:47:43;101966.53;;;12.49;85.60
72414;BME280;60995;52.154;4.498;2022-10-31T01:50:04;101965.06;;;12.56;85.38
72414;BME280;60995;52.154;4.498;2022-10-31T01:52:28;101970.28;;;12.48;86.35
72414;BME280;60995;52.154;4.498;2022-10-31T01:54:56;101962.81;;;12.50;86.33
72414;BME280;60995;52.154;4.498;2022-10-31T01:57:20;101967.53;;;12.48;85.94
72414;BME280;60995;52.154;4.498;2022-10-31T01:59:39;101962.09;;;12.48;86.08
72414;BME280;60995;52.154;4.498;2022-10-31T02:01:58;101971.00;;;12.38;86.86
72414;BME280;60995;52.154;4.498;2022-10-31T02:04:15;101962.56;;;12.30;86.77
72414;BME280;60995;52.154;4.498;2022-10-31T02:06:33;101962.19;;;12.23;86.54
72414;BME280;60995;52.154;4.498;2022-10-31T02:08:54;101966.25;;;12.29;86.83
72414;BME280;60995;52.154;4.498;2022-10-31T02:11:13;101958.84;;;12.31;87.24
72414;BME280;60995;52.154;4.498;2022-10-31T02:13:30;101962.06;;;12.25;87.22
72414;BME280;60995;52.154;4.498;2022-10-31T02:15:47;101963.75;;;12.15;86.77
72414;BME280;60995;52.154;4.498;2022-10-31T02:18:07;101973.41;;;12.07;87.14
72414;BME280;60995;52.154;4.498;2022-10-31T02:20:24;101961.88;;;12.04;87.03
72414;BME280;60995;52.154;4.498;2022-10-31T02:33:06;101965.88;;;11.87;88.19
72414;BME280;60995;52.154;4.498;2022-10-31T02:40:25;101961.22;;;11.89;88.01
72414;BME280;60995;52.154;4.498;2022-10-31T02:45:30;101952.75;;;11.69;87.70
72414;BME280;60995;52.154;4.498;2022-10-31T02:47:55;101952.94;;;11.66;88.27
72414;BME280;60995;52.154;4.498;2022-10-31T02:50:20;101958.63;;;11.63;89.29
72414;BME280;60995;52.154;4.498;2022-10-31T02:52:40;101959.28;;;11.67;89.33
72414;BME280;60995;52.154;4.498;2022-10-31T02:54:56;101956.56;;;11.67;89.46
72414;BME280;60995;52.154;4.498;2022-10-31T02:57:13;101952.75;;;11.69;88.99
72414;BME280;60995;52.154;4.498;2022-10-31T02:59:34;101952.50;;;11.72;89.40
72414;BME280;60995;52.154;4.498;2022-10-31T03:01:56;101948.09;;;11.58;89.74
72414;BME280;60995;52.154;4.498;2022-10-31T03:09:33;101950.88;;;11.46;89.39
72414;BME280;60995;52.154;4.498;2022-10-31T03:12:07;101961.75;;;11.46;89.45
72414;BME280;60995;52.154;4.498;2022-10-31T03:14:51;101965.69;;;11.41;89.33
72414;BME280;60995;52.154;4.498;2022-10-31T03:17:18;101957.47;;;11.30;89.43
72414;BME280;60995;52.154;4.498;2022-10-31T03:19:43;101959.84;;;11.35;89.48
72414;BME280;60995;52.154;4.498;2022-10-31T03:22:07;101960.41;;;11.27;89.80
72414;BME280;60995;52.154;4.498;2022-10-31T03:24:32;101959.03;;;11.21;90.57
72414;BME280;60995;52.154;4.498;2022-10-31T03:26:53;101965.31;;;11.22;89.87
72414;BME280;60995;52.154;4.498;2022-10-31T03:29:13;101955.81;;;11.16;90.45
72414;BME280;60995;52.154;4.498;2022-10-31T03:31:33;101959.50;;;11.15;90.51
72414;BME280;60995;52.154;4.498;2022-10-31T03:33:53;101962.09;;;11.17;90.28
72414;BME280;60995;52.154;4.498;2022-10-31T03:36:11;101954.69;;;11.19;90.10
72414;BME280;60995;52.154;4.498;2022-10-31T03:38:31;101966.25;;;11.09;89.85
72414;BME280;60995;52.154;4.498;2022-10-31T03:40:51;101960.81;;;11.09;89.92
72414;BME280;60995;52.154;4.498;2022-10-31T03:43:10;101959.28;;;11.05;90.51
72414;BME280;60995;52.154;4.498;2022-10-31T03:45:33;101956.25;;;11.10;90.88
72414;BME280;60995;52.154;4.498;2022-10-31T03:47:55;101959.53;;;11.02;90.64
72414;BME280;60995;52.154;4.498;2022-10-31T03:50:13;101956.69;;;11.04;91.30
72414;BME280;60995;52.154;4.498;2022-10-31T03:55:18;101958.19;;;11.08;91.00
72414;BME280;60995;52.154;4.498;2022-10-31T03:57:39;101955.59;;;11.06;90.62
72414;BME280;60995;52.154;4.498;2022-10-31T04:00:08;101955.38;;;11.09;90.48
72414;BME280;60995;52.154;4.498;2022-10-31T04:02:28;101950.41;;;11.03;90.25
72414;BME280;60995;52.154;4.498;2022-10-31T04:04:47;101950.66;;;11.00;90.60
72414;BME280;60995;52.154;4.498;2022-10-31T04:07:04;101961.25;;;11.03;90.94
72414;BME280;60995;52.154;4.498;2022-10-31T04:09:22;101959.75;;;10.99;90.69
72414;BME280;60995;52.154;4.498;2022-10-31T04:11:42;101966.81;;;11.02;90.89
72414;BME280;60995;52.154;4.498;2022-10-31T04:14:04;101969.66;;;11.00;91.33
72414;BME280;60995;52.154;4.498;2022-10-31T04:16:20;101968.47;;;10.91;90.68
72414;BME280;60995;52.154;4.498;2022-10-31T04:18:39;101982.34;;;11.00;90.81
72414;BME280;60995;52.154;4.498;2022-10-31T04:20:59;101978.41;;;11.04;90.90
72414;BME280;60995;52.154;4.498;2022-10-31T04:23:20;101979.31;;;11.04;90.92
72414;BME280;60995;52.154;4.498;2022-10-31T04:25:39;101978.63;;;11.14;91.02
72414;BME280;60995;52.154;4.498;2022-10-31T04:27:55;101983.66;;;11.07;90.52
72414;BME280;60995;52.154;4.498;2022-10-31T04:30:11;101979.06;;;11.07;90.09
72414;BME280;60995;52.154;4.498;2022-10-31T04:32:27;101972.53;;;11.10;90.59
72414;BME280;60995;52.154;4.498;2022-10-31T04:34:43;101968.19;;;11.07;91.02
72414;BME280;60995;52.154;4.498;2022-10-31T04:37:00;101975.81;;;11.02;90.41
72414;BME280;60995;52.154;4.498;2022-10-31T04:39:17;101971.59;;;10.98;90.81
72414;BME280;60995;52.154;4.498;2022-10-31T04:41:33;101967.38;;;10.94;90.76
72414;BME280;60995;52.154;4.498;2022-10-31T04:43:49;101972.16;;;10.90;90.76
72414;BME280;60995;52.154;4.498;2022-10-31T04:46:05;101965.88;;;10.90;90.54
72414;BME280;60995;52.154;4.498;2022-10-31T04:48:21;101965.88;;;10.90;91.25
72414;BME280;60995;52.154;4.498;2022-10-31T04:50:37;101963.91;;;10.92;90.67
72414;BME280;60995;52.154;4.498;2022-10-31T04:52:55;101964.56;;;10.83;91.16
72414;BME280;60995;52.154;4.498;2022-10-31T04:55:11;101965.66;;;10.80;90.14
72414;BME280;60995;52.154;4.498;2022-10-31T04:57:28;101961.31;;;10.78;90.14
72414;BME280;60995;52.154;4.498;2022-10-31T04:59:44;101961.72;;;10.84;90.90
72414;BME280;60995;52.154;4.498;2022-10-31T05:02:00;101963.47;;;10.85;90.72
72414;BME280;60995;52.154;4.498;2022-10-31T05:04:16;101963.06;;;10.79;90.45
72414;BME280;60995;52.154;4.498;2022-10-31T05:06:32;101961.66;;;10.73;90.53
72414;BME280;60995;52.154;4.498;2022-10-31T05:08:48;101962.94;;;10.80;90.38
72414;BME280;60995;52.154;4.498;2022-10-31T05:11:04;101963.28;;;10.75;90.29
72414;BME280;60995;52.154;4.498;2022-10-31T05:13:20;101968.28;;;10.69;90.62
72414;BME280;60995;52.154;4.498;2022-10-31T05:15:36;101957.75;;;10.64;90.60
72414;BME280;60995;52.154;4.498;2022-10-31T05:17:53;101961.75;;;10.71;90.58
72414;BME280;60995;52.154;4.498;2022-10-31T05:20:11;101955.16;;;10.75;90.36
72414;BME280;60995;52.154;4.498;2022-10-31T05:22:29;101954.06;;;10.65;90.41
72414;BME280;60995;52.154;4.498;2022-10-31T05:24:45;101949.81;;;10.61;90.26
72414;BME280;60995;52.154;4.498;2022-10-31T05:27:01;101950.06;;;10.58;90.63
72414;BME280;60995;52.154;4.498;2022-10-31T05:29:17;101946.59;;;10.56;90.48
72414;BME280;60995;52.154;4.498;2022-10-31T05:31:33;101944.72;;;10.82;89.61
72414;BME280;60995;52.154;4.498;2022-10-31T05:33:49;101937.19;;;10.86;89.11
72414;BME280;60995;52.154;4.498;2022-10-31T05:36:05;101945.47;;;10.71;89.74
72414;BME280;60995;52.154;4.498;2022-10-31T05:38:21;101933.88;;;10.56;90.49
72414;BME280;60995;52.154;4.498;2022-10-31T05:40:37;101933.59;;;10.48;90.68
72414;BME280;60995;52.154;4.498;2022-10-31T05:42:53;101939.88;;;10.49;91.03
72414;BME280;60995;52.154;4.498;2022-10-31T05:45:13;101932.69;;;10.48;90.98
72414;BME280;60995;52.154;4.498;2022-10-31T05:47:32;101943.56;;;10.48;91.04
72414;BME280;60995;52.154;4.498;2022-10-31T05:49:48;101932.16;;;10.42;91.12
72414;BME280;60995;52.154;4.498;2022-10-31T05:52:04;101938.53;;;10.54;90.95
72414;BME280;60995;52.154;4.498;2022-10-31T05:54:21;101933.78;;;10.45;91.10
72414;BME280;60995;52.154;4.498;2022-10-31T05:56:37;101931.41;;;10.40;90.90
72414;BME280;60995;52.154;4.498;2022-10-31T05:58:53;101929.88;;;10.36;91.56
72414;BME280;60995;52.154;4.498;2022-10-31T06:01:09;101927.06;;;10.38;91.20
72414;BME280;60995;52.154;4.498;2022-10-31T06:03:25;101936.34;;;10.34;91.82
72414;BME280;60995;52.154;4.498;2022-10-31T06:05:41;101926.81;;;10.28;92.15
72414;BME280;60995;52.154;4.498;2022-10-31T06:07:57;101936.94;;;10.26;91.93
72414;BME280;60995;52.154;4.498;2022-10-31T06:10:14;101934.53;;;10.34;91.56
72414;BME280;60995;52.154;4.498;2022-10-31T06:12:31;101925.44;;;10.35;90.82
72414;BME280;60995;52.154;4.498;2022-10-31T06:14:53;101915.84;;;10.30;91.32
72414;BME280;60995;52.154;4.498;2022-10-31T06:17:09;101940.38;;;10.28;92.00
72414;BME280;60995;52.154;4.498;2022-10-31T06:19:25;101928.78;;;10.39;91.03
72414;BME280;60995;52.154;4.498;2022-10-31T06:21:41;101922.75;;;10.35;91.48
72414;BME280;60995;52.154;4.498;2022-10-31T06:23:57;101923.03;;;10.43;91.32
72414;BME280;60995;52.154;4.498;2022-10-31T06:26:13;101934.44;;;10.49;91.80
72414;BME280;60995;52.154;4.498;2022-10-31T06:28:29;101924.66;;;10.46;91.87
72414;BME280;60995;52.154;4.498;2022-10-31T06:30:45;101938.13;;;10.48;91.73
72414;BME280;60995;52.154;4.498;2022-10-31T06:33:04;101937.28;;;10.47;92.73
72414;BME280;60995;52.154;4.498;2022-10-31T06:35:21;101929.19;;;10.58;92.48
72414;BME280;60995;52.154;4.498;2022-10-31T06:37:37;101926.25;;;10.74;91.93
72414;BME280;60995;52.154;4.498;2022-10-31T06:39:54;101928.00;;;10.75;92.32
72414;BME280;60995;52.154;4.498;2022-10-31T06:42:10;101928.50;;;10.81;92.33
72414;BME280;60995;52.154;4.498;2022-10-31T06:44:26;101935.69;;;10.82;92.28
72414;BME280;60995;52.154;4.498;2022-10-31T06:46:42;101929.13;;;10.97;92.29
72414;BME280;60995;52.154;4.498;2022-10-31T06:48:58;101928.56;;;11.05;91.94
72414;BME280;60995;52.154;4.498;2022-10-31T06:51:14;101923.25;;;11.03;92.07
72414;BME280;60995;52.154;4.498;2022-10-31T06:53:30;101928.00;;;11.13;91.99
72414;BME280;60995;52.154;4.498;2022-10-31T06:55:46;101925.56;;;11.21;92.45
72414;BME280;60995;52.154;4.498;2022-10-31T06:58:02;101927.13;;;11.36;91.90
72414;BME280;60995;52.154;4.498;2022-10-31T07:00:18;101936.22;;;11.24;92.05
72414;BME280;60995;52.154;4.498;2022-10-31T07:02:35;101935.41;;;11.35;92.01
72414;BME280;60995;52.154;4.498;2022-10-31T07:04:51;101942.16;;;11.29;91.62
72414;BME280;60995;52.154;4.498;2022-10-31T07:07:07;101940.94;;;11.33;91.93
72414;BME280;60995;52.154;4.498;2022-10-31T07:09:23;101946.66;;;11.41;91.56
72414;BME280;60995;52.154;4.498;2022-10-31T07:11:39;101948.00;;;11.36;91.19
72414;BME280;60995;52.154;4.498;2022-10-31T07:13:55;101942.13;;;11.42;91.08
72414;BME280;60995;52.154;4.498;2022-10-31T07:16:11;101945.69;;;11.42;91.93
72414;BME280;60995;52.154;4.498;2022-10-31T07:18:29;101952.16;;;11.53;91.51
72414;BME280;60995;52.154;4.498;2022-10-31T07:20:45;101945.22;;;11.49;91.48
72414;BME280;60995;52.154;4.498;2022-10-31T07:23:01;101954.88;;;11.29;91.21
72414;BME280;60995;52.154;4.498;2022-10-31T07:25:17;101955.81;;;11.16;91.74
72414;BME280;60995;52.154;4.498;2022-10-31T07:27:40;101952.34;;;11.38;91.65
72414;BME280;60995;52.154;4.498;2022-10-31T07:29:57;101956.72;;;11.52;91.69
72414;BME280;60995;52.154;4.498;2022-10-31T07:32:13;101959.28;;;11.67;90.67
72414;BME280;60995;52.154;4.498;2022-10-31T07:34:29;101952.44;;;11.61;90.42
72414;BME280;60995;52.154;4.498;2022-10-31T07:36:45;101956.81;;;11.39;90.32
72414;BME280;60995;52.154;4.498;2022-10-31T07:39:01;101955.41;;;11.58;90.53
72414;BME280;60995;52.154;4.498;2022-10-31T07:41:17;101955.69;;;11.42;89.90
72414;BME280;60995;52.154;4.498;2022-10-31T07:43:33;101958.31;;;11.44;89.94
72414;BME280;60995;52.154;4.498;2022-10-31T07:45:50;101948.47;;;11.54;89.97
72414;BME280;60995;52.154;4.498;2022-10-31T07:48:07;101946.28;;;11.70;88.79
72414;BME280;60995;52.154;4.498;2022-10-31T07:50:25;101956.44;;;11.80;88.69
72414;BME280;60995;52.154;4.498;2022-10-31T07:52:42;101946.03;;;11.98;88.57
72414;BME280;60995;52.154;4.498;2022-10-31T07:54:59;101957.38;;;11.91;88.24
72414;BME280;60995;52.154;4.498;2022-10-31T07:57:15;101949.06;;;11.82;88.72
72414;BME280;60995;52.154;4.498;2022-10-31T07:59:31;101954.59;;;12.04;88.90
72414;BME280;60995;52.154;4.498;2022-10-31T08:01:47;101952.16;;;12.13;88.11
72414;BME280;60995;52.154;4.498;2022-10-31T08:04:03;101952.81;;;11.92;88.71
72414;BME280;60995;52.154;4.498;2022-10-31T08:06:19;101952.69;;;12.40;87.82
72414;BME280;60995;52.154;4.498;2022-10-31T08:08:35;101946.13;;;12.43;87.30
72414;BME280;60995;52.154;4.498;2022-10-31T08:10:51;101946.13;;;12.66;85.34
72414;BME280;60995;52.154;4.498;2022-10-31T08:13:11;101944.75;;;12.60;86.01
72414;BME280;60995;52.154;4.498;2022-10-31T08:15:29;101945.25;;;12.65;85.97
72414;BME280;60995;52.154;4.498;2022-10-31T08:17:46;101940.88;;;13.19;84.50
72414;BME280;60995;52.154;4.498;2022-10-31T08:20:02;101951.09;;;13.50;82.45
72414;BME280;60995;52.154;4.498;2022-10-31T08:22:19;101953.59;;;13.42;82.09
72414;BME280;60995;52.154;4.498;2022-10-31T08:24:35;101949.28;;;13.71;82.94
72414;BME280;60995;52.154;4.498;2022-10-31T08:26:51;101955.53;;;13.83;80.92
72414;BME280;60995;52.154;4.498;2022-10-31T08:29:07;101948.22;;;13.51;82.83
72414;BME280;60995;52.154;4.498;2022-10-31T08:31:23;101955.31;;;13.43;82.34
72414;BME280;60995;52.154;4.498;2022-10-31T08:33:42;101946.00;;;12.90;85.48
72414;BME280;60995;52.154;4.498;2022-10-31T08:35:58;101954.31;;;13.44;83.70
72414;BME280;60995;52.154;4.498;2022-10-31T08:38:14;101949.69;;;13.55;83.12
72414;BME280;60995;52.154;4.498;2022-10-31T08:40:31;101950.13;;;13.28;83.62
72414;BME280;60995;52.154;4.498;2022-10-31T08:42:54;101955.34;;;13.31;83.16
72414;BME280;60995;52.154;4.498;2022-10-31T08:45:11;101947.25;;;12.86;85.22
72414;BME280;60995;52.154;4.498;2022-10-31T08:47:27;101944.50;;;12.63;86.93
72414;BME280;60995;52.154;4.498;2022-10-31T08:49:43;101945.31;;;13.20;85.95
72414;BME280;60995;52.154;4.498;2022-10-31T08:51:59;101944.88;;;13.48;84.88
72414;BME280;60995;52.154;4.498;2022-10-31T08:54:15;101936.91;;;13.12;85.03
72414;BME280;60995;52.154;4.498;2022-10-31T08:56:31;101945.41;;;13.42;85.40
72414;BME280;60995;52.154;4.498;2022-10-31T08:58:47;101933.88;;;13.49;84.21
72414;BME280;60995;52.154;4.498;2022-10-31T09:01:03;101933.44;;;14.07;82.24
72414;BME280;60995;52.154;4.498;2022-10-31T09:03:24;101934.22;;;14.41;80.15
72414;BME280;60995;52.154;4.498;2022-10-31T09:05:41;101936.03;;;14.30;80.98
72414;BME280;60995;52.154;4.498;2022-10-31T09:07:58;101931.03;;;13.93;81.61
72414;BME280;60995;52.154;4.498;2022-10-31T09:10:15;101939.50;;;13.69;83.75
72414;BME280;60995;52.154;4.498;2022-10-31T09:12:31;101938.16;;;13.19;85.80
72414;BME280;60995;52.154;4.498;2022-10-31T09:14:47;101933.38;;;13.33;85.90
72414;BME280;60995;52.154;4.498;2022-10-31T09:17:03;101925.72;;;13.70;85.29
72414;BME280;60995;52.154;4.498;2022-10-31T09:19:19;101915.66;;;13.92;86.08
72414;BME280;60995;52.154;4.498;2022-10-31T09:21:35;101912.13;;;14.01;83.29
72414;BME280;60995;52.154;4.498;2022-10-31T09:23:51;101904.47;;;14.68;80.12
72414;BME280;60995;52.154;4.498;2022-10-31T09:26:09;101898.78;;;15.01;79.20
72414;BME280;60995;52.154;4.498;2022-10-31T09:28:25;101895.38;;;15.28;77.54
72414;BME280;60995;52.154;4.498;2022-10-31T09:30:41;101903.44;;;15.69;75.80
72414;BME280;60995;52.154;4.498;2022-10-31T09:32:59;101896.03;;;16.09;74.72
72414;BME280;60995;52.154;4.498;2022-10-31T09:35:22;101888.91;;;16.35;71.96
72414;BME280;60995;52.154;4.498;2022-10-31T09:37:39;101883.91;;;17.14;70.54
72414;BME280;60995;52.154;4.498;2022-10-31T09:39:55;101891.66;;;18.17;66.47
72414;BME280;60995;52.154;4.498;2022-10-31T09:44:49;101874.84;;;17.94;67.37
72414;BME280;60995;52.154;4.498;2022-10-31T09:50:29;101875.22;;;17.81;67.70
72414;BME280;60995;52.154;4.498;2022-10-31T09:53:03;101872.53;;;17.27;69.50
72414;BME280;60995;52.154;4.498;2022-10-31T09:55:31;101872.69;;;16.52;72.02
72414;BME280;60995;52.154;4.498;2022-10-31T09:57:53;101860.03;;;16.41;72.77
72414;BME280;60995;52.154;4.498;2022-10-31T10:00:14;101860.41;;;16.28;74.30
72414;BME280;60995;52.154;4.498;2022-10-31T10:04:58;101854.22;;;16.54;73.59
72414;BME280;60995;52.154;4.498;2022-10-31T10:08:07;101851.53;;;16.72;73.09
72414;BME280;60995;52.154;4.498;2022-10-31T10:10:08;101856.28;;;17.52;70.05
72414;BME280;60995;52.154;4.498;2022-10-31T10:18:04;101845.84;;;19.37;64.92
72414;BME280;60995;52.154;4.498;2022-10-31T10:25:20;101838.97;;;18.22;65.93
72414;BME280;60995;52.154;4.498;2022-10-31T10:33:24;101816.75;;;19.67;62.80
72414;BME280;60995;52.154;4.498;2022-10-31T10:38:20;101800.28;;;19.50;63.43
72414;BME280;60995;52.154;4.498;2022-10-31T10:40:45;101795.28;;;18.54;66.27
72414;BME280;60995;52.154;4.498;2022-10-31T10:43:15;101790.84;;;18.10;67.52
72414;BME280;60995;52.154;4.498;2022-10-31T10:45:39;101784.69;;;17.63;70.75
72414;BME280;60995;52.154;4.498;2022-10-31T10:48:15;101787.41;;;18.50;66.97
72414;BME280;60995;52.154;4.498;2022-10-31T10:50:40;101780.31;;;17.97;69.49
72414;BME280;60995;52.154;4.498;2022-10-31T10:53:11;101784.06;;;17.69;69.90
72414;BME280;60995;52.154;4.498;2022-10-31T10:55:39;101779.19;;;17.63;70.12
72414;BME280;60995;52.154;4.498;2022-10-31T10:58:03;101776.72;;;17.52;70.42
72414;BME280;60995;52.154;4.498;2022-10-31T11:00:24;101777.56;;;17.26;71.62
72414;BME280;60995;52.154;4.498;2022-10-31T11:02:43;101777.16;;;17.39;71.29
72414;BME280;60995;52.154;4.498;2022-10-31T11:04:59;101787.38;;;17.55;70.82
72414;BME280;60995;52.154;4.498;2022-10-31T11:07:17;101779.97;;;17.47;71.23
72414;BME280;60995;52.154;4.498;2022-10-31T11:09:34;101776.44;;;17.37;71.55
72414;BME280;60995;52.154;4.498;2022-10-31T11:11:51;101775.25;;;16.95;73.56
72414;BME280;60995;52.154;4.498;2022-10-31T11:14:14;101762.53;;;16.94;73.54
72414;BME280;60995;52.154;4.498;2022-10-31T11:16:37;101773.66;;;17.29;71.91
72414;BME280;60995;52.154;4.498;2022-10-31T11:19:08;101772.75;;;17.46;71.36
72414;BME280;60995;52.154;4.498;2022-10-31T11:21:28;101769.19;;;17.28;72.32
72414;BME280;60995;52.154;4.498;2022-10-31T11:23:45;101761.88;;;17.36;72.11
72414;BME280;60995;52.154;4.498;2022-10-31T11:26:02;101765.47;;;17.90;70.22
72414;BME280;60995;52.154;4.498;2022-10-31T11:28:20;101755.63;;;18.48;68.30
72414;BME280;60995;52.154;4.498;2022-10-31T11:30:43;101746.06;;;19.51;64.96
72414;BME280;60995;52.154;4.498;2022-10-31T11:33:02;101748.72;;;20.00;62.61
72414;BME280;60995;52.154;4.498;2022-10-31T11:35:19;101744.78;;;20.35;61.98
72414;BME280;60995;52.154;4.498;2022-10-31T11:37:40;101736.75;;;19.60;64.05
72414;BME280;60995;52.154;4.498;2022-10-31T11:39:59;101736.25;;;18.82;66.11
72414;BME280;60995;52.154;4.498;2022-10-31T11:42:23;101731.38;;;18.43;68.52
72414;BME280;60995;52.154;4.498;2022-10-31T11:44:42;101725.44;;;18.73;67.26
72414;BME280;60995;52.154;4.498;2022-10-31T11:47:03;101727.78;;;18.51;68.25
72414;BME280;60995;52.154;4.498;2022-10-31T11:51:40;101716.06;;;18.41;68.50
72414;BME280;60995;52.154;4.498;2022-10-31T11:53:59;101717.72;;;18.09;69.51
72414;BME280;60995;52.154;4.498;2022-10-31T11:56:18;101711.00;;;18.03;70.49
72414;BME280;60995;52.154;4.498;2022-10-31T11:58:34;101692.38;;;17.54;72.75
72414;BME280;60995;52.154;4.498;2022-10-31T12:00:51;101690.63;;;17.53;72.62
72414;BME280;60995;52.154;4.498;2022-10-31T12:03:10;101694.22;;;17.80;71.58
72414;BME280;60995;52.154;4.498;2022-10-31T12:05:43;101683.06;;;17.47;73.02
72414;BME280;60995;52.154;4.498;2022-10-31T12:08:02;101682.72;;;17.42;73.12
72414;BME280;60995;52.154;4.498;2022-10-31T12:10:19;101681.34;;;17.80;71.93
72414;BME280;60995;52.154;4.498;2022-10-31T12:15:31;101666.25;;;18.11;70.27
72414;BME280;60995;52.154;4.498;2022-10-31T12:20:29;101664.22;;;17.86;71.64
72414;BME280;60995;52.154;4.498;2022-10-31T12:23:09;101650.47;;;17.78;71.36
72414;BME280;60995;52.154;4.498;2022-10-31T12:25:53;101648.13;;;17.57;72.64
72414;BME280;60995;52.154;4.498;2022-10-31T12:47:44;101580.78;;;18.39;70.37
72414;BME280;60995;52.154;4.498;2022-10-31T12:59:31;101552.59;;;18.28;70.56
72414;BME280;60995;52.154;4.498;2022-10-31T13:01:58;101535.56;;;17.92;71.88
72414;BME280;60995;52.154;4.498;2022-10-31T13:04:21;101535.63;;;18.08;71.66
72414;BME280;60995;52.154;4.498;2022-10-31T13:06:50;101536.97;;;18.29;71.41
72414;BME280;60995;52.154;4.498;2022-10-31T13:09:16;101523.50;;;17.84;72.77
72414;BME280;60995;52.154;4.498;2022-10-31T13:11:39;101523.88;;;17.81;73.14
72414;BME280;60995;52.154;4.498;2022-10-31T13:16:24;101501.16;;;17.55;74.06
72414;BME280;60995;52.154;4.498;2022-10-31T13:18:54;101515.75;;;17.63;73.75
72414;BME280;60995;52.154;4.498;2022-10-31T13:21:27;101497.44;;;17.72;73.62
72414;BME280;60995;52.154;4.498;2022-10-31T13:23:50;101499.28;;;17.55;74.30
72414;BME280;60995;52.154;4.498;2022-10-31T13:26:11;101490.38;;;17.61;73.88
72414;BME280;60995;52.154;4.498;2022-10-31T13:30:52;101494.91;;;18.04;72.43
72414;BME280;60995;52.154;4.498;2022-10-31T13:38:05;101481.44;;;17.59;74.51
72414;BME280;60995;52.154;4.498;2022-10-31T13:41:00;101484.59;;;17.22;76.70
72414;BME280;60995;52.154;4.498;2022-10-31T13:43:28;101478.88;;;17.74;74.44
72414;BME280;60995;52.154;4.498;2022-10-31T13:45:57;101481.03;;;17.29;76.34